Time;durP1;ratioP1;P1;durP2;ratioP2;P2;SDS_P1;SDS_P2;PMS_P1;PMS_P2;Temp;Humidity;BMP_temperature;BMP_pressure;BME280_temperature;BME280_humidity;BME280_pressure;Samples;Min_cycle;Max_cycle;Signal;HPM_P1;HPM_P2
2023/09/18 00:01:31;;;;;;;3.07;2.73;;;;;;;;;;4987149;28;20272;-78
2023/09/18 00:03:57;;;;;;;3.40;2.95;;;;;;;;;;5005759;28;20287;-78
2023/09/18 00:06:25;;;;;;;3.30;2.70;;;;;;;;;;4988700;28;20069;-78
2023/09/18 00:08:51;;;;;;;5.13;3.10;;;;;;;;;;5006982;28;20042;-78
2023/09/18 00:11:16;;;;;;;4.25;3.13;;;;;;;;;;4988459;28;20023;-78
2023/09/18 00:13:41;;;;;;;3.55;3.00;;;;;;;;;;5003288;28;20485;-79
2023/09/18 00:16:06;;;;;;;4.05;2.53;;;;;;;;;;5005873;28;20046;-79
2023/09/18 00:18:32;;;;;;;5.72;3.25;;;;;;;;;;5007070;28;20089;-78
2023/09/18 00:20:58;;;;;;;3.97;3.00;;;;;;;;;;5007211;28;20024;-80
2023/09/18 00:23:23;;;;;;;4.25;2.92;;;;;;;;;;5007250;28;20077;-80
2023/09/18 00:25:48;;;;;;;3.00;2.65;;;;;;;;;;5011587;28;20073;-79
2023/09/18 00:28:14;;;;;;;4.00;3.03;;;;;;;;;;5008523;28;20045;-79
2023/09/18 00:30:46;;;;;;;4.35;3.20;;;;;;;;;;5008268;28;20069;-79
2023/09/18 00:33:11;;;;;;;4.35;2.97;;;;;;;;;;4989898;28;20065;-78
2023/09/18 00:35:36;;;;;;;4.80;3.30;;;;;;;;;;5007814;28;20033;-79
2023/09/18 00:38:03;;;;;;;5.97;3.42;;;;;;;;;;5012060;28;20025;-79
2023/09/18 00:40:29;;;;;;;4.43;2.80;;;;;;;;;;5011582;28;20038;-79
2023/09/18 00:42:54;;;;;;;4.95;3.10;;;;;;;;;;5010919;28;20037;-78
2023/09/18 00:45:20;;;;;;;4.03;3.10;;;;;;;;;;5010440;28;20078;-79
2023/09/18 00:47:46;;;;;;;5.45;3.17;;;;;;;;;;5010175;28;20256;-79
2023/09/18 00:50:12;;;;;;;3.55;3.17;;;;;;;;;;5009678;28;20488;-79
2023/09/18 00:52:38;;;;;;;4.13;3.20;;;;;;;;;;5010079;28;20034;-79
2023/09/18 00:55:06;;;;;;;3.05;2.72;;;;;;;;;;5010686;28;20022;-79
2023/09/18 00:57:32;;;;;;;4.70;3.20;;;;;;;;;;5010657;28;20026;-79
2023/09/18 00:59:57;;;;;;;8.25;3.33;;;;;;;;;;5009728;28;20370;-78
2023/09/18 01:02:23;;;;;;;5.07;2.97;;;;;;;;;;5010293;28;20026;-78
2023/09/18 01:04:49;;;;;;;3.78;3.15;;;;;;;;;;4992449;28;20030;-78
2023/09/18 01:07:14;;;;;;;4.78;3.13;;;;;;;;;;5011484;28;20018;-79
2023/09/18 01:09:40;;;;;;;4.10;3.10;;;;;;;;;;5011130;28;20053;-79
2023/09/18 01:12:30;;;;;;;4.15;2.92;;;;;;;;;;4992699;28;20028;-79
2023/09/18 01:14:55;;;;;;;3.95;3.20;;;;;;;;;;5010356;28;20050;-79
2023/09/18 01:17:21;;;;;;;6.83;3.03;;;;;;;;;;5009087;28;20026;-78
2023/09/18 01:19:47;;;;;;;4.15;3.13;;;;;;;;;;5008205;28;20033;-79
2023/09/18 01:22:16;;;;;;;5.32;3.35;;;;;;;;;;5007567;28;20026;-79
2023/09/18 01:24:41;;;;;;;4.05;3.17;;;;;;;;;;5008654;28;20108;-78
2023/09/18 01:27:18;;;;;;;3.60;3.10;;;;;;;;;;4988804;28;20026;-79
2023/09/18 01:29:44;;;;;;;4.93;3.05;;;;;;;;;;5007609;28;20045;-78
2023/09/18 01:32:10;;;;;;;3.97;3.00;;;;;;;;;;5008009;28;20034;-78
2023/09/18 01:34:41;;;;;;;5.70;3.15;;;;;;;;;;5007386;28;20504;-78
2023/09/18 01:37:07;;;;;;;5.93;3.40;;;;;;;;;;4989668;28;20027;-79
2023/09/18 01:39:34;;;;;;;4.22;3.40;;;;;;;;;;5008971;28;20105;-79
2023/09/18 01:42:05;;;;;;;4.18;3.38;;;;;;;;;;5009372;28;20041;-79
2023/09/18 01:44:31;;;;;;;5.70;4.40;;;;;;;;;;5009493;28;20436;-79
2023/09/18 01:46:58;;;;;;;5.85;3.58;;;;;;;;;;4991348;28;20049;-79
2023/09/18 01:49:28;;;;;;;8.35;3.05;;;;;;;;;;5007707;28;20089;-78
2023/09/18 01:51:53;;;;;;;3.72;3.10;;;;;;;;;;4990376;28;20507;-79
2023/09/18 01:54:19;;;;;;;5.45;3.47;;;;;;;;;;5007583;28;20022;-79
2023/09/18 01:56:44;;;;;;;4.38;3.33;;;;;;;;;;5004765;28;20030;-79
2023/09/18 01:59:09;;;;;;;4.70;3.17;;;;;;;;;;5004139;28;20037;-79
2023/09/18 02:01:35;;;;;;;6.40;3.20;;;;;;;;;;5002891;28;20276;-78
2023/09/18 02:04:00;;;;;;;5.57;3.22;;;;;;;;;;4986824;28;20026;-78
2023/09/18 02:06:25;;;;;;;4.05;3.00;;;;;;;;;;5004006;28;20076;-79
2023/09/18 02:08:50;;;;;;;4.30;3.23;;;;;;;;;;5000326;28;20510;-78
2023/09/18 02:11:16;;;;;;;5.75;3.28;;;;;;;;;;4983914;28;20624;-79
2023/09/18 02:13:42;;;;;;;5.20;3.10;;;;;;;;;;4999846;28;20030;-78
2023/09/18 02:16:07;;;;;;;5.00;3.33;;;;;;;;;;4983334;28;20274;-78
2023/09/18 02:18:33;;;;;;;3.70;3.28;;;;;;;;;;5001785;28;20025;-78
2023/09/18 02:20:58;;;;;;;4.07;3.38;;;;;;;;;;4984794;28;20018;-79
2023/09/18 02:23:23;;;;;;;4.28;3.40;;;;;;;;;;5003233;28;20428;-78
2023/09/18 02:25:55;;;;;;;7.55;3.60;;;;;;;;;;5003113;28;20036;-78
2023/09/18 02:28:21;;;;;;;4.28;3.50;;;;;;;;;;5004252;28;20026;-78
2023/09/18 02:30:46;;;;;;;6.32;3.28;;;;;;;;;;5004462;28;20021;-78
2023/09/18 02:33:11;;;;;;;3.77;3.00;;;;;;;;;;5003782;28;20101;-79
2023/09/18 02:35:36;;;;;;;6.57;3.20;;;;;;;;;;5002799;28;20258;-78
2023/09/18 02:38:02;;;;;;;4.57;3.28;;;;;;;;;;5002480;28;20298;-78
2023/09/18 02:40:28;;;;;;;6.30;3.30;;;;;;;;;;4986062;28;20033;-78
2023/09/18 02:42:53;;;;;;;4.88;3.40;;;;;;;;;;5004258;28;20033;-78
2023/09/18 02:45:18;;;;;;;4.37;3.30;;;;;;;;;;5004570;28;20018;-78
2023/09/18 02:47:43;;;;;;;4.95;3.45;;;;;;;;;;5005103;28;20277;-79
2023/09/18 02:50:10;;;;;;;4.80;3.00;;;;;;;;;;5005934;28;20057;-78
2023/09/18 02:52:36;;;;;;;4.00;3.20;;;;;;;;;;5006199;28;20260;-78
2023/09/18 02:55:01;;;;;;;4.43;3.20;;;;;;;;;;5008436;28;20033;-78
2023/09/18 02:57:26;;;;;;;4.72;3.65;;;;;;;;;;5008088;28;20034;-79
2023/09/18 02:59:51;;;;;;;6.20;3.20;;;;;;;;;;5007824;28;20023;-79
2023/09/18 03:02:17;;;;;;;3.80;3.20;;;;;;;;;;5006990;28;20022;-78
2023/09/18 03:04:42;;;;;;;8.10;3.13;;;;;;;;;;5006328;28;20738;-77
2023/09/18 03:07:07;;;;;;;3.77;3.03;;;;;;;;;;5005804;28;20029;-78
2023/09/18 03:09:32;;;;;;;4.60;3.43;;;;;;;;;;5006290;28;20256;-78
2023/09/18 03:11:58;;;;;;;3.75;3.22;;;;;;;;;;5006146;28;20335;-79
2023/09/18 03:14:23;;;;;;;5.27;3.50;;;;;;;;;;5006572;28;20022;-78
2023/09/18 03:16:48;;;;;;;6.97;3.27;;;;;;;;;;5006453;28;20259;-78
2023/09/18 03:19:13;;;;;;;6.43;3.50;;;;;;;;;;5006607;28;20267;-77
2023/09/18 03:21:39;;;;;;;3.90;3.33;;;;;;;;;;5006922;28;20030;-79
2023/09/18 03:24:04;;;;;;;6.95;3.25;;;;;;;;;;5006709;28;20635;-78
2023/09/18 03:26:30;;;;;;;7.97;3.50;;;;;;;;;;5006890;28;20080;-78
2023/09/18 03:28:55;;;;;;;4.22;3.28;;;;;;;;;;5006499;28;20093;-79
2023/09/18 03:31:20;;;;;;;5.47;3.50;;;;;;;;;;4988772;28;20042;-79
2023/09/18 03:33:46;;;;;;;4.45;3.40;;;;;;;;;;5006399;28;20505;-79
2023/09/18 03:36:12;;;;;;;7.18;3.08;;;;;;;;;;4989194;28;20026;-79
2023/09/18 03:38:37;;;;;;;4.90;3.25;;;;;;;;;;4988655;28;20026;-78
2023/09/18 03:41:02;;;;;;;4.18;3.03;;;;;;;;;;4989581;28;20050;-79
2023/09/18 03:43:27;;;;;;;4.72;3.25;;;;;;;;;;4972863;28;20434;-78
2023/09/18 03:45:53;;;;;;;4.43;3.28;;;;;;;;;;5008080;28;20037;-79
2023/09/18 03:48:19;;;;;;;5.43;3.40;;;;;;;;;;5006982;28;20031;-79
2023/09/18 03:50:44;;;;;;;5.13;3.35;;;;;;;;;;4990159;28;20252;-78
2023/09/18 03:53:09;;;;;;;4.10;3.10;;;;;;;;;;5007595;28;20133;-79
2023/09/18 03:55:35;;;;;;;4.47;3.50;;;;;;;;;;5003851;28;20275;-79
2023/09/18 03:58:00;;;;;;;6.87;3.40;;;;;;;;;;5002861;28;20033;-78
2023/09/18 04:00:25;;;;;;;4.38;3.17;;;;;;;;;;5003144;28;20592;-78
2023/09/18 04:02:51;;;;;;;6.63;3.15;;;;;;;;;;5006964;28;20046;-78
2023/09/18 04:05:16;;;;;;;5.10;3.60;;;;;;;;;;5006609;28;20073;-78
2023/09/18 04:07:45;;;;;;;5.28;3.60;;;;;;;;;;5006773;28;20026;-78
2023/09/18 04:10:15;;;;;;;5.20;3.50;;;;;;;;;;5006693;28;20030;-78
2023/09/18 04:12:40;;;;;;;4.78;3.40;;;;;;;;;;4989297;28;20493;-79
2023/09/18 04:15:06;;;;;;;7.47;3.53;;;;;;;;;;5003987;28;20098;-78
2023/09/18 04:17:31;;;;;;;5.95;3.80;;;;;;;;;;5001693;28;20268;-78
2023/09/18 04:19:56;;;;;;;5.00;3.73;;;;;;;;;;5003746;28;20027;-78
2023/09/18 04:22:22;;;;;;;3.92;3.28;;;;;;;;;;5007062;28;20312;-78
2023/09/18 04:24:47;;;;;;;4.68;3.47;;;;;;;;;;5005966;28;20030;-78
2023/09/18 04:27:12;;;;;;;5.18;3.55;;;;;;;;;;5006370;28;20085;-79
2023/09/18 04:29:38;;;;;;;7.50;3.80;;;;;;;;;;4989076;28;20058;-79
2023/09/18 04:32:04;;;;;;;4.13;3.67;;;;;;;;;;5004634;28;20081;-78
2023/09/18 04:34:29;;;;;;;5.15;3.90;;;;;;;;;;5004769;28;20742;-79
2023/09/18 04:36:54;;;;;;;3.90;3.30;;;;;;;;;;5007266;28;20054;-78
2023/09/18 04:39:19;;;;;;;5.40;3.60;;;;;;;;;;4989942;28;20026;-79
2023/09/18 04:41:45;;;;;;;4.95;3.78;;;;;;;;;;4989511;28;20334;-77
2023/09/18 04:44:12;;;;;;;4.70;3.60;;;;;;;;;;5005809;28;20457;-79
2023/09/18 04:46:37;;;;;;;4.88;3.60;;;;;;;;;;5006525;28;20295;-79
2023/09/18 04:49:03;;;;;;;11.48;3.60;;;;;;;;;;5005849;28;20030;-79
2023/09/18 04:51:31;;;;;;;4.93;3.60;;;;;;;;;;5006979;28;20019;-81
2023/09/18 04:53:57;;;;;;;3.90;3.50;;;;;;;;;;4989293;28;20030;-79
2023/09/18 04:56:22;;;;;;;6.90;3.50;;;;;;;;;;4989009;28;20030;-79
2023/09/18 04:58:48;;;;;;;4.97;3.83;;;;;;;;;;5007269;28;20033;-78
2023/09/18 05:01:13;;;;;;;10.40;4.30;;;;;;;;;;4990383;28;20022;-79
2023/09/18 05:03:38;;;;;;;4.13;3.73;;;;;;;;;;5009776;28;20030;-78
2023/09/18 05:06:04;;;;;;;10.57;4.00;;;;;;;;;;4989405;28;20332;-79
2023/09/18 05:08:29;;;;;;;6.18;3.92;;;;;;;;;;5006996;28;20479;-78
2023/09/18 05:10:55;;;;;;;4.95;3.60;;;;;;;;;;5006687;28;20027;-78
2023/09/18 05:13:20;;;;;;;4.68;3.63;;;;;;;;;;5005345;28;20037;-78
2023/09/18 05:15:45;;;;;;;6.10;3.30;;;;;;;;;;5003666;28;20022;-78
2023/09/18 05:18:11;;;;;;;7.80;3.97;;;;;;;;;;5003046;28;20026;-80
2023/09/18 05:20:36;;;;;;;6.28;4.05;;;;;;;;;;4988858;28;20675;-76
2023/09/18 05:23:02;;;;;;;6.35;3.90;;;;;;;;;;5007051;28;20113;-81
2023/09/18 05:25:31;;;;;;;6.30;4.00;;;;;;;;;;4989813;28;20026;-80
2023/09/18 05:27:57;;;;;;;5.95;3.80;;;;;;;;;;5004751;28;20033;-80
2023/09/18 05:30:32;;;;;;;5.22;3.67;;;;;;;;;;5005070;28;20022;-79
2023/09/18 05:33:04;;;;;;;7.18;3.65;;;;;;;;;;4987944;28;20034;-80
2023/09/18 05:35:33;;;;;;;5.18;3.40;;;;;;;;;;5006079;28;20182;-77
2023/09/18 05:37:59;;;;;;;5.47;3.55;;;;;;;;;;5006433;28;20032;-79
2023/09/18 05:40:28;;;;;;;6.43;3.80;;;;;;;;;;5006190;28;20033;-78
2023/09/18 05:42:54;;;;;;;7.47;3.50;;;;;;;;;;5007184;28;20061;-78
2023/09/18 05:45:20;;;;;;;7.07;3.80;;;;;;;;;;5005735;28;20030;-78
2023/09/18 05:47:45;;;;;;;8.07;3.80;;;;;;;;;;5005703;28;20030;-77
2023/09/18 05:50:16;;;;;;;10.05;3.83;;;;;;;;;;5006106;28;20032;-78
2023/09/18 05:52:45;;;;;;;4.72;3.92;;;;;;;;;;5007790;28;20026;-78
2023/09/18 05:55:11;;;;;;;4.97;3.47;;;;;;;;;;5006870;28;20026;-78
2023/09/18 05:57:36;;;;;;;7.47;4.10;;;;;;;;;;5006353;28;20037;-78
2023/09/18 06:00:02;;;;;;;7.55;4.15;;;;;;;;;;5005437;28;20101;-78
2023/09/18 06:02:28;;;;;;;5.53;4.00;;;;;;;;;;5006815;28;20022;-78
2023/09/18 06:04:56;;;;;;;5.00;4.07;;;;;;;;;;5006737;28;20044;-78
2023/09/18 06:07:22;;;;;;;5.78;3.67;;;;;;;;;;5007684;28;20026;-79
2023/09/18 06:09:48;;;;;;;5.43;4.10;;;;;;;;;;5002096;28;20022;-78
2023/09/18 06:12:14;;;;;;;7.00;3.83;;;;;;;;;;4997355;28;20492;-78
2023/09/18 06:14:39;;;;;;;7.50;4.00;;;;;;;;;;4979678;28;20029;-77
2023/09/18 06:17:05;;;;;;;5.53;4.30;;;;;;;;;;4997980;28;20061;-77
2023/09/18 06:19:31;;;;;;;5.97;4.25;;;;;;;;;;4996920;28;20687;-77
2023/09/18 06:22:02;;;;;;;5.55;4.18;;;;;;;;;;4998237;28;20065;-77
2023/09/18 06:24:27;;;;;;;7.70;4.35;;;;;;;;;;4997713;28;20069;-78
2023/09/18 06:26:53;;;;;;;7.45;4.50;;;;;;;;;;4998365;28;20030;-77
2023/09/18 06:29:18;;;;;;;4.38;3.70;;;;;;;;;;4996814;28;20026;-77
2023/09/18 06:31:44;;;;;;;5.18;4.13;;;;;;;;;;4996991;28;20102;-77
2023/09/18 06:34:09;;;;;;;4.97;3.97;;;;;;;;;;4996681;28;20034;-78
2023/09/18 06:36:34;;;;;;;9.73;4.10;;;;;;;;;;4999245;28;20622;-78
2023/09/18 06:39:03;;;;;;;5.33;4.00;;;;;;;;;;4999424;28;20027;-78
2023/09/18 06:41:28;;;;;;;5.90;4.53;;;;;;;;;;4980402;28;20268;-78
2023/09/18 06:43:53;;;;;;;6.77;4.60;;;;;;;;;;5001396;28;20437;-78
2023/09/18 06:46:18;;;;;;;5.97;4.25;;;;;;;;;;4998736;28;20262;-77
2023/09/18 06:48:45;;;;;;;5.05;4.10;;;;;;;;;;4999630;28;20056;-76
2023/09/18 06:51:10;;;;;;;5.25;4.13;;;;;;;;;;4981781;28;20057;-77
2023/09/18 06:53:36;;;;;;;5.75;4.10;;;;;;;;;;4998681;28;20026;-77
2023/09/18 06:56:01;;;;;;;7.33;4.67;;;;;;;;;;4981297;28;20033;-77
2023/09/18 06:58:26;;;;;;;5.47;4.07;;;;;;;;;;4999332;28;20264;-76
2023/09/18 07:00:52;;;;;;;5.13;4.22;;;;;;;;;;4980925;28;20694;-74
2023/09/18 07:03:17;;;;;;;5.72;4.05;;;;;;;;;;4994471;28;20515;-74
2023/09/18 07:05:43;;;;;;;6.40;3.75;;;;;;;;;;4994532;28;20527;-74
2023/09/18 07:08:11;;;;;;;4.65;3.63;;;;;;;;;;4994946;28;20061;-74
2023/09/18 07:10:37;;;;;;;4.55;3.80;;;;;;;;;;4995365;28;20042;-75
2023/09/18 07:13:02;;;;;;;10.48;4.68;;;;;;;;;;4978348;28;20022;-75
2023/09/18 07:15:28;;;;;;;5.05;3.60;;;;;;;;;;4978401;28;20089;-75
2023/09/18 07:17:53;;;;;;;6.97;4.10;;;;;;;;;;4977838;28;20049;-76
2023/09/18 07:20:18;;;;;;;8.85;4.22;;;;;;;;;;4993625;28;20049;-75
2023/09/18 07:22:47;;;;;;;9.18;4.35;;;;;;;;;;4975419;28;20105;-76
2023/09/18 07:25:12;;;;;;;13.40;4.45;;;;;;;;;;4993525;28;20436;-76
2023/09/18 07:27:39;;;;;;;7.10;4.30;;;;;;;;;;4993898;28;20030;-76
2023/09/18 07:30:05;;;;;;;5.10;3.90;;;;;;;;;;4994214;28;20384;-77
2023/09/18 07:32:31;;;;;;;4.50;3.88;;;;;;;;;;4994202;28;20122;-76
2023/09/18 07:34:56;;;;;;;4.40;3.40;;;;;;;;;;4996676;28;20401;-76
2023/09/18 07:37:22;;;;;;;7.70;4.57;;;;;;;;;;4978843;28;20042;-77
2023/09/18 07:39:49;;;;;;;8.82;4.20;;;;;;;;;;4975758;28;20306;-75
2023/09/18 07:42:14;;;;;;;5.43;4.30;;;;;;;;;;4993439;28;20077;-75
2023/09/18 07:44:39;;;;;;;6.07;4.00;;;;;;;;;;4993578;28;20034;-76
2023/09/18 07:47:05;;;;;;;5.20;3.67;;;;;;;;;;4976468;28;20477;-75
2023/09/18 07:49:30;;;;;;;5.32;3.80;;;;;;;;;;4993763;28;20647;-76
2023/09/18 07:51:56;;;;;;;5.45;3.38;;;;;;;;;;4993689;28;20022;-75
2023/09/18 07:54:21;;;;;;;5.47;4.00;;;;;;;;;;4993939;28;20026;-75
2023/09/18 07:56:46;;;;;;;6.05;3.78;;;;;;;;;;4993862;28;20309;-76
2023/09/18 07:59:14;;;;;;;5.40;3.47;;;;;;;;;;4994050;28;20026;-76
2023/09/18 08:01:39;;;;;;;4.03;3.17;;;;;;;;;;4976467;28;20813;-75
2023/09/18 08:04:05;;;;;;;4.40;3.83;;;;;;;;;;4994071;28;20042;-75
2023/09/18 08:06:31;;;;;;;4.60;3.40;;;;;;;;;;4994120;28;20030;-75
2023/09/18 08:09:00;;;;;;;5.00;3.33;;;;;;;;;;4993771;28;20030;-75
2023/09/18 08:11:25;;;;;;;6.35;3.60;;;;;;;;;;4976079;28;20026;-75
2023/09/18 08:14:03;;;;;;;5.37;3.30;;;;;;;;;;4976209;28;20393;-74
2023/09/18 08:16:29;;;;;;;5.28;3.78;;;;;;;;;;4976168;28;20256;-76
2023/09/18 08:18:56;;;;;;;6.07;3.67;;;;;;;;;;4975408;28;20037;-76
2023/09/18 08:21:23;;;;;;;4.50;3.72;;;;;;;;;;4991256;28;20459;-76
2023/09/18 08:23:48;;;;;;;5.78;2.78;;;;;;;;;;4974415;28;20030;-76
2023/09/18 08:26:13;;;;;;;4.17;3.47;;;;;;;;;;4993343;28;20052;-76
2023/09/18 08:28:43;;;;;;;4.65;3.60;;;;;;;;;;4991914;28;20336;-76
2023/09/18 08:31:08;;;;;;;7.35;3.83;;;;;;;;;;4993244;28;20393;-76
2023/09/18 08:33:34;;;;;;;5.32;3.63;;;;;;;;;;4993470;28;20026;-76
2023/09/18 08:36:00;;;;;;;4.93;3.25;;;;;;;;;;4978446;28;20057;-76
2023/09/18 08:38:25;;;;;;;3.63;2.90;;;;;;;;;;4997711;28;20030;-76
2023/09/18 08:40:54;;;;;;;5.88;3.35;;;;;;;;;;4979733;28;20025;-76
2023/09/18 08:43:20;;;;;;;3.53;2.80;;;;;;;;;;4997265;28;20109;-76
2023/09/18 08:45:52;;;;;;;4.47;3.00;;;;;;;;;;4997009;28;20045;-76
2023/09/18 08:48:17;;;;;;;4.30;3.38;;;;;;;;;;4979366;28;20026;-76
2023/09/18 08:50:44;;;;;;;6.07;3.42;;;;;;;;;;4997958;28;20041;-76
2023/09/18 08:53:10;;;;;;;4.22;3.13;;;;;;;;;;4996722;28;20572;-77
2023/09/18 08:55:35;;;;;;;5.07;3.13;;;;;;;;;;4996008;28;20062;-76
2023/09/18 08:58:01;;;;;;;5.22;3.25;;;;;;;;;;4979663;28;20026;-76
2023/09/18 09:00:26;;;;;;;5.53;3.00;;;;;;;;;;4995438;28;20065;-77
2023/09/18 09:02:55;;;;;;;5.32;3.15;;;;;;;;;;4995835;28;20093;-77
2023/09/18 09:05:21;;;;;;;7.43;3.22;;;;;;;;;;4979345;28;20089;-76
2023/09/18 09:07:48;;;;;;;7.55;3.15;;;;;;;;;;4996811;28;20485;-76
2023/09/18 09:10:13;;;;;;;3.83;3.15;;;;;;;;;;4979410;28;20092;-76
2023/09/18 09:12:54;;;;;;;3.33;2.90;;;;;;;;;;4980474;28;20469;-77
2023/09/18 09:15:21;;;;;;;3.97;3.17;;;;;;;;;;4996758;28;20260;-77
2023/09/18 09:17:46;;;;;;;6.93;2.95;;;;;;;;;;4978975;28;20436;-77
2023/09/18 09:20:13;;;;;;;3.90;2.88;;;;;;;;;;4996113;28;20072;-77
2023/09/18 09:22:40;;;;;;;4.07;2.70;;;;;;;;;;4996430;28;20026;-77
2023/09/18 09:25:22;;;;;;;5.10;2.97;;;;;;;;;;4979146;28;20035;-77
2023/09/18 09:27:47;;;;;;;6.03;3.15;;;;;;;;;;4996613;28;20030;-77
2023/09/18 09:30:39;;;;;;;4.63;3.10;;;;;;;;;;4996007;28;20029;-75
2023/09/18 09:33:06;;;;;;;4.05;2.80;;;;;;;;;;4975766;28;20077;-76
2023/09/18 09:35:34;;;;;;;6.55;2.88;;;;;;;;;;4996131;28;20101;-76
2023/09/18 09:38:07;;;;;;;6.47;3.00;;;;;;;;;;4978645;28;20508;-76
2023/09/18 09:40:33;;;;;;;;;;;;;;;;;;4996335;28;20464;-76
2023/09/18 09:43:01;;;;;;;7.00;2.78;;;;;;;;;;4978622;28;19945;-76
2023/09/18 09:45:29;;;;;;;9.02;3.15;;;;;;;;;;4978364;28;20443;-77
2023/09/18 09:47:56;;;;;;;5.18;2.90;;;;;;;;;;4995235;28;20030;-76
2023/09/18 09:50:21;;;;;;;4.03;2.30;;;;;;;;;;4978657;28;20049;-76
2023/09/18 09:52:49;;;;;;;3.38;2.60;;;;;;;;;;4978478;28;20485;-76
2023/09/18 09:55:33;;;;;;;3.42;2.70;;;;;;;;;;4996215;28;20102;-77
2023/09/18 09:58:04;;;;;;;6.03;2.97;;;;;;;;;;4996244;28;20473;-76
2023/09/18 10:00:42;;;;;;;5.07;2.75;;;;;;;;;;4979850;28;20524;-77
2023/09/18 10:03:09;;;;;;;4.05;2.80;;;;;;;;;;4978556;28;20037;-77
2023/09/18 10:05:37;;;;;;;11.52;3.22;;;;;;;;;;4979278;28;20057;-74
2023/09/18 10:08:23;;;;;;;4.78;3.20;;;;;;;;;;4996475;28;20565;-74
2023/09/18 10:10:51;;;;;;;7.70;2.88;;;;;;;;;;4995923;28;20023;-76
2023/09/18 10:13:31;;;;;;;3.90;2.90;;;;;;;;;;4995346;28;20034;-74
2023/09/18 10:16:02;;;;;;;5.15;2.83;;;;;;;;;;4996049;28;20030;-75
2023/09/18 10:18:32;;;;;;;3.13;2.67;;;;;;;;;;4995900;28;20492;-74
2023/09/18 10:21:09;;;;;;;6.60;2.80;;;;;;;;;;4995642;28;20474;-74
2023/09/18 10:23:40;;;;;;;5.90;3.15;;;;;;;;;;4995608;28;20116;-73
2023/09/18 10:26:07;;;;;;;5.47;2.60;;;;;;;;;;4995319;28;20489;-74
2023/09/18 10:28:34;;;;;;;4.18;2.70;;;;;;;;;;4995143;28;20026;-73
2023/09/18 10:31:01;;;;;;;6.93;3.20;;;;;;;;;;4995204;28;20030;-73
2023/09/18 10:33:26;;;;;;;5.15;3.00;;;;;;;;;;4977613;28;20116;-74
2023/09/18 10:35:53;;;;;;;6.57;3.00;;;;;;;;;;4995133;28;20105;-74
2023/09/18 10:38:19;;;;;;;4.15;2.88;;;;;;;;;;4994724;28;20030;-74
2023/09/18 10:40:47;;;;;;;3.30;2.75;;;;;;;;;;4995237;28;20389;-73
2023/09/18 10:43:16;;;;;;;6.22;3.15;;;;;;;;;;4994838;28;20030;-74
2023/09/18 10:45:41;;;;;;;4.25;2.72;;;;;;;;;;4977292;28;20022;-73
2023/09/18 10:48:08;;;;;;;3.25;2.70;;;;;;;;;;4995101;28;20389;-73
2023/09/18 10:50:34;;;;;;;3.33;2.80;;;;;;;;;;4994720;28;20034;-74
2023/09/18 10:53:00;;;;;;;7.43;2.90;;;;;;;;;;4994758;28;20026;-75
2023/09/18 10:55:26;;;;;;;3.30;2.72;;;;;;;;;;4994622;28;20026;-74
2023/09/18 10:57:56;;;;;;;6.50;3.25;;;;;;;;;;4976898;28;20108;-76
2023/09/18 11:00:25;;;;;;;3.63;3.00;;;;;;;;;;4994581;28;20084;-74
2023/09/18 11:03:14;;;;;;;4.80;3.33;;;;;;;;;;4976966;28;20025;-75
2023/09/18 11:05:39;;;;;;;3.95;3.13;;;;;;;;;;4993940;28;20081;-74
2023/09/18 11:08:28;;;;;;;8.95;3.00;;;;;;;;;;4976937;28;20026;-74
2023/09/18 11:10:59;;;;;;;5.18;3.03;;;;;;;;;;4994257;28;20098;-73
2023/09/18 11:13:33;;;;;;;3.47;3.17;;;;;;;;;;4994370;28;20027;-73
2023/09/18 11:16:21;;;;;;;5.88;2.80;;;;;;;;;;4994587;28;20022;-72
2023/09/18 11:18:52;;;;;;;6.75;3.10;;;;;;;;;;4994429;28;20608;-75
2023/09/18 11:21:18;;;;;;;5.22;2.85;;;;;;;;;;4994160;28;20022;-75
2023/09/18 11:23:44;;;;;;;5.80;2.80;;;;;;;;;;4993936;28;20027;-75
2023/09/18 11:26:10;;;;;;;4.85;2.92;;;;;;;;;;4976642;28;20036;-75
2023/09/18 11:28:37;;;;;;;6.63;2.83;;;;;;;;;;4976512;28;20029;-75
2023/09/18 11:31:03;;;;;;;7.97;3.40;;;;;;;;;;4993990;28;20093;-73
2023/09/18 11:33:37;;;;;;;4.95;3.45;;;;;;;;;;4993836;28;20501;-74
2023/09/18 11:36:07;;;;;;;4.38;3.20;;;;;;;;;;4994270;28;20049;-74
2023/09/18 11:38:52;;;;;;;3.83;3.20;;;;;;;;;;4994070;28;20449;-74
2023/09/18 11:41:26;;;;;;;6.22;3.00;;;;;;;;;;4993753;28;20397;-75
2023/09/18 11:44:13;;;;;;;6.38;3.30;;;;;;;;;;4976420;28;20065;-75
2023/09/18 11:46:39;;;;;;;4.38;3.30;;;;;;;;;;4976389;28;20397;-75
2023/09/18 11:49:07;;;;;;;4.10;2.90;;;;;;;;;;4977082;28;20027;-75
2023/09/18 11:51:32;;;;;;;7.05;3.63;;;;;;;;;;4993871;28;20449;-75
2023/09/18 11:53:58;;;;;;;7.07;3.58;;;;;;;;;;4993835;28;20049;-75
2023/09/18 11:56:24;;;;;;;6.60;3.60;;;;;;;;;;4976211;28;20080;-75
2023/09/18 11:58:51;;;;;;;6.85;3.28;;;;;;;;;;4993630;28;20415;-74
2023/09/18 12:01:18;;;;;;;5.55;3.55;;;;;;;;;;4993488;28;20018;-74
2023/09/18 12:03:44;;;;;;;3.30;3.00;;;;;;;;;;4993868;28;20038;-75
2023/09/18 12:06:13;;;;;;;6.97;3.45;;;;;;;;;;4994174;28;20022;-74
2023/09/18 12:08:39;;;;;;;5.22;3.67;;;;;;;;;;4976039;28;20033;-75
2023/09/18 12:11:05;;;;;;;5.25;3.70;;;;;;;;;;4999110;28;20027;-75
2023/09/18 12:13:31;;;;;;;8.07;3.65;;;;;;;;;;5000044;28;20022;-75
2023/09/18 12:15:58;;;;;;;6.50;3.38;;;;;;;;;;5000283;28;20084;-75
2023/09/18 12:18:25;;;;;;;9.55;3.65;;;;;;;;;;5000255;28;20447;-75
2023/09/18 12:20:50;;;;;;;6.07;4.03;;;;;;;;;;4982456;28;20068;-75
2023/09/18 12:23:19;;;;;;;5.13;3.67;;;;;;;;;;4982637;28;20066;-75
2023/09/18 12:25:48;;;;;;;8.55;3.50;;;;;;;;;;5000154;28;20105;-75
2023/09/18 12:28:15;;;;;;;5.32;3.47;;;;;;;;;;5000006;28;20026;-75
2023/09/18 12:30:40;;;;;;;5.80;3.63;;;;;;;;;;4999818;28;20032;-75
2023/09/18 12:33:06;;;;;;;8.60;3.70;;;;;;;;;;4999890;28;20026;-74
2023/09/18 12:35:31;;;;;;;5.50;3.65;;;;;;;;;;4999841;28;20026;-74
2023/09/18 12:38:00;;;;;;;6.68;3.97;;;;;;;;;;4999556;28;20033;-74
2023/09/18 12:40:28;;;;;;;5.90;3.95;;;;;;;;;;4982263;28;20392;-74
2023/09/18 12:42:57;;;;;;;6.43;3.70;;;;;;;;;;4982416;28;20026;-76
2023/09/18 12:45:27;;;;;;;14.13;4.00;;;;;;;;;;4999581;28;20053;-74
2023/09/18 12:47:55;;;;;;;4.30;3.58;;;;;;;;;;4982236;28;20072;-75
2023/09/18 12:50:21;;;;;;;4.40;3.58;;;;;;;;;;4999638;28;20418;-74
2023/09/18 12:52:46;;;;;;;5.63;3.42;;;;;;;;;;4999685;28;20018;-76
2023/09/18 12:55:25;;;;;;;9.53;3.53;;;;;;;;;;4999660;28;20109;-74
2023/09/18 12:57:52;;;;;;;5.35;3.83;;;;;;;;;;4982041;28;20271;-75
2023/09/18 13:00:22;;;;;;;9.27;3.55;;;;;;;;;;4999483;28;20072;-74
2023/09/18 13:02:51;;;;;;;12.98;3.60;;;;;;;;;;4982058;28;20392;-75
2023/09/18 13:05:19;;;;;;;5.88;3.83;;;;;;;;;;4999563;28;20061;-75
2023/09/18 13:07:45;;;;;;;7.05;3.88;;;;;;;;;;5000047;28;20093;-74
2023/09/18 13:10:10;;;;;;;8.88;4.20;;;;;;;;;;4999802;28;20436;-75
2023/09/18 13:12:55;;;;;;;6.63;3.60;;;;;;;;;;5000615;28;20069;-77
2023/09/18 13:15:33;;;;;;;4.47;3.53;;;;;;;;;;4982386;28;20378;-75
2023/09/18 13:18:01;;;;;;;5.28;3.47;;;;;;;;;;4999767;28;20481;-75
2023/09/18 13:20:29;;;;;;;7.10;3.42;;;;;;;;;;4999543;28;20539;-74
2023/09/18 13:22:56;;;;;;;4.75;3.60;;;;;;;;;;4996474;28;20026;-75
2023/09/18 13:25:23;;;;;;;5.20;3.53;;;;;;;;;;4996251;28;20041;-75
2023/09/18 13:27:50;;;;;;;4.97;3.58;;;;;;;;;;4978842;28;20121;-75
2023/09/18 13:30:21;;;;;;;7.75;3.75;;;;;;;;;;4996721;28;20038;-75
2023/09/18 13:32:50;;;;;;;6.53;3.60;;;;;;;;;;4996363;28;20026;-75
2023/09/18 13:35:16;;;;;;;8.32;3.30;;;;;;;;;;4996839;28;20057;-75
2023/09/18 13:37:41;;;;;;;6.60;3.65;;;;;;;;;;4996195;28;20045;-75
2023/09/18 13:40:08;;;;;;;5.13;3.50;;;;;;;;;;4995909;28;20026;-74
2023/09/18 13:42:43;;;;;;;7.55;3.67;;;;;;;;;;4995974;28;20393;-76
2023/09/18 13:45:08;;;;;;;6.18;3.35;;;;;;;;;;4997469;28;20050;-76
2023/09/18 13:47:34;;;;;;;7.70;3.78;;;;;;;;;;4996141;28;20054;-76
2023/09/18 13:50:00;;;;;;;5.93;3.30;;;;;;;;;;4996207;28;20034;-76
2023/09/18 13:52:30;;;;;;;5.30;3.38;;;;;;;;;;4978826;28;20516;-77
2023/09/18 13:54:56;;;;;;;5.22;3.50;;;;;;;;;;4996153;28;20390;-76
2023/09/18 13:57:22;;;;;;;5.43;3.20;;;;;;;;;;4996278;28;20028;-76
2023/09/18 13:59:50;;;;;;;8.55;3.45;;;;;;;;;;4978379;28;20256;-76
2023/09/18 14:02:16;;;;;;;5.30;3.10;;;;;;;;;;4996348;28;20076;-76
2023/09/18 14:04:42;;;;;;;5.57;3.60;;;;;;;;;;4995898;28;20038;-76
2023/09/18 14:07:09;;;;;;;9.35;3.72;;;;;;;;;;4995863;28;20105;-76
2023/09/18 14:09:35;;;;;;;8.60;3.50;;;;;;;;;;4978216;28;20026;-76
2023/09/18 14:12:02;;;;;;;6.88;3.45;;;;;;;;;;4995671;28;20034;-76
2023/09/18 14:14:28;;;;;;;8.00;3.55;;;;;;;;;;4979044;28;20440;-77
2023/09/18 14:16:53;;;;;;;7.18;3.58;;;;;;;;;;4995622;28;20109;-76
2023/09/18 14:19:19;;;;;;;7.75;3.30;;;;;;;;;;4978074;28;20033;-76
2023/09/18 14:21:44;;;;;;;6.82;3.60;;;;;;;;;;4995555;28;20061;-77
2023/09/18 14:24:10;;;;;;;7.40;3.40;;;;;;;;;;4977758;28;20053;-77
2023/09/18 14:26:41;;;;;;;4.55;3.40;;;;;;;;;;4995841;28;20058;-77
2023/09/18 14:29:08;;;;;;;6.70;3.50;;;;;;;;;;4995346;28;20452;-77
2023/09/18 14:31:33;;;;;;;9.30;3.58;;;;;;;;;;4996742;28;20022;-77
2023/09/18 14:34:00;;;;;;;6.03;3.38;;;;;;;;;;5003493;28;20483;-77
2023/09/18 14:36:25;;;;;;;7.47;3.42;;;;;;;;;;4984890;28;20027;-77
2023/09/18 14:38:50;;;;;;;5.80;3.58;;;;;;;;;;5001683;28;20056;-77
2023/09/18 14:41:17;;;;;;;7.07;3.70;;;;;;;;;;4999613;28;20064;-77
2023/09/18 14:43:43;;;;;;;4.72;3.17;;;;;;;;;;4981847;28;20027;-76